createdAt,value
2019-02-26T00:01:55.233Z,30.83
2019-02-26T00:04:27.309Z,31.80
2019-02-26T00:07:00.379Z,33.53
2019-02-26T00:09:34.642Z,34.30
2019-02-26T00:12:03.570Z,36.47
2019-02-26T00:14:34.265Z,36.13
2019-02-26T00:17:08.658Z,35.93
2019-02-26T00:19:37.673Z,35.43
2019-02-26T00:22:09.581Z,35.83
2019-02-26T00:24:42.651Z,32.67
2019-02-26T00:27:13.273Z,32.80
2019-02-26T00:29:44.715Z,35.37
2019-02-26T00:32:18.393Z,37.90
2019-02-26T00:34:48.883Z,35.50
2019-02-26T00:37:22.150Z,28.77
2019-02-26T00:39:54.505Z,32.73
2019-02-26T00:42:28.664Z,35.57
2019-02-26T00:45:01.031Z,31.40
2019-02-26T00:47:33.833Z,33.10
2019-02-26T00:50:05.648Z,34.10
2019-02-26T00:52:39.149Z,32.47
2019-02-26T00:55:09.742Z,36.87
2019-02-26T00:57:41.098Z,31.37
2019-02-26T01:00:14.465Z,33.07
2019-02-26T01:02:45.167Z,35.80
2019-02-26T01:05:16.849Z,32.57
2019-02-26T01:07:50.222Z,41.37
2019-02-26T01:10:21.214Z,36.53
2019-02-26T01:12:52.463Z,34.27
2019-02-26T01:15:23.218Z,38.23
2019-02-26T01:17:54.967Z,36.63
2019-02-26T01:20:27.477Z,35.93
2019-02-26T01:22:58.767Z,34.83
2019-02-26T01:25:29.502Z,39.03
2019-02-26T01:28:00.572Z,38.53
2019-02-26T01:30:33.662Z,37.50
2019-02-26T01:33:05.471Z,42.50
2019-02-26T01:35:37.762Z,34.37
2019-02-26T01:38:08.634Z,37.30
2019-02-26T01:40:41.807Z,40.23
2019-02-26T01:43:11.802Z,34.93
2019-02-26T01:45:44.044Z,36.03
2019-02-26T01:48:16.666Z,34.90
2019-02-26T02:09:11.301Z,46.13
2019-02-26T02:11:40.768Z,48.67
2019-02-26T02:14:12.727Z,54.53
2019-02-26T02:16:44.130Z,55.40
2019-02-26T02:19:18.090Z,50.20
2019-02-26T02:21:49.327Z,47.83
2019-02-26T02:24:20.604Z,48.57
2019-02-26T02:26:53.556Z,50.03
2019-02-26T02:29:28.095Z,47.37
2019-02-26T02:31:59.548Z,50.50
2019-02-26T02:34:32.645Z,45.80
2019-02-26T02:37:02.334Z,44.87
2019-02-26T02:39:33.153Z,50.73
2019-02-26T02:42:03.835Z,49.30
2019-02-26T02:44:34.622Z,46.20
2019-02-26T02:47:06.774Z,48.90
2019-02-26T02:49:39.892Z,49.57
2019-02-26T02:52:11.813Z,47.53
2019-02-26T02:54:47.014Z,48.43
2019-02-26T02:57:17.069Z,47.20
2019-02-26T02:59:47.894Z,47.73
2019-02-26T03:02:20.585Z,44.80
2019-02-26T03:04:51.062Z,43.90
2019-02-26T03:07:23.677Z,48.93
2019-02-26T03:09:54.264Z,48.33
2019-02-26T03:12:25.033Z,50.07
2019-02-26T03:14:56.363Z,49.77
2019-02-26T03:17:28.318Z,47.47
2019-02-26T03:20:01.660Z,44.33
2019-02-26T03:22:33.363Z,47.53
2019-02-26T03:25:04.139Z,47.90
2019-02-26T03:27:36.733Z,48.73
2019-02-26T03:30:08.550Z,46.03
2019-02-26T03:32:41.382Z,53.80
2019-02-26T03:35:13.331Z,56.73
2019-02-26T03:37:44.687Z,45.43
2019-02-26T03:40:15.460Z,48.83
2019-02-26T03:42:46.400Z,49.53
2019-02-26T03:45:23.597Z,49.80
2019-02-26T03:47:49.741Z,48.83
2019-02-26T03:50:20.579Z,56.57
2019-02-26T03:52:51.358Z,48.67
2019-02-26T03:55:23.636Z,49.10
2019-02-26T03:57:56.556Z,51.73
2019-02-26T04:00:26.794Z,52.30
2019-02-26T04:02:57.606Z,50.67
2019-02-26T04:05:28.345Z,50.43
2019-02-26T04:08:01.576Z,53.47
2019-02-26T04:10:31.625Z,51.67
2019-02-26T04:13:02.405Z,52.17
2019-02-26T04:15:35.510Z,52.30
2019-02-26T04:18:05.706Z,52.10
2019-02-26T04:20:36.473Z,53.07
2019-02-26T04:23:08.972Z,45.30
2019-02-26T04:25:49.544Z,51.00
2019-02-26T04:28:47.734Z,48.83
2019-02-26T04:31:43.589Z,56.30
2019-02-26T04:34:48.489Z,52.30
2019-02-26T04:37:43.834Z,57.30
2019-02-26T04:41:03.038Z,53.83
2019-02-26T04:44:12.099Z,54.10
2019-02-26T04:46:57.141Z,51.03
2019-02-26T04:49:30.162Z,54.47
2019-02-26T04:52:02.940Z,52.33
2019-02-26T04:54:36.828Z,56.70
2019-02-26T04:57:06.439Z,58.03
2019-02-26T04:59:41.308Z,55.03
2019-02-26T05:02:11.088Z,53.53
2019-02-26T05:04:42.993Z,51.73
2019-02-26T05:07:16.286Z,55.07
2019-02-26T05:09:47.533Z,57.43
2019-02-26T05:12:19.233Z,52.73
2019-02-26T05:14:49.994Z,57.10
2019-02-26T05:17:21.833Z,58.67
2019-02-26T05:19:53.315Z,61.60
2019-02-26T05:22:25.712Z,57.77
2019-02-26T05:24:56.822Z,52.50
2019-02-26T05:27:27.607Z,59.30
2019-02-26T05:30:00.261Z,60.37
2019-02-26T05:32:33.400Z,63.40
2019-02-26T05:35:05.388Z,61.37
2019-02-26T05:37:40.317Z,60.50
2019-02-26T05:40:10.462Z,64.07
2019-02-26T05:42:41.316Z,59.87
2019-02-26T05:45:13.371Z,58.20
2019-02-26T05:47:46.064Z,63.10
2019-02-26T05:50:16.872Z,57.90
2019-02-26T05:52:50.402Z,64.33
2019-02-26T05:55:23.679Z,59.50
2019-02-26T05:57:53.535Z,64.43
2019-02-26T06:00:26.332Z,67.10
2019-02-26T06:02:57.658Z,65.93
2019-02-26T06:05:28.471Z,66.20
2019-02-26T06:07:59.362Z,67.50
2019-02-26T06:10:32.528Z,69.20
2019-02-26T06:13:04.840Z,65.97
2019-02-26T06:15:35.205Z,58.50
2019-02-26T06:18:06.031Z,59.50
2019-02-26T06:20:37.880Z,64.57
2019-02-26T06:23:08.675Z,72.07
2019-02-26T06:25:39.450Z,65.43
2019-02-26T06:28:12.772Z,66.47
2019-02-26T06:30:42.552Z,64.50
2019-02-26T06:33:14.062Z,70.60
2019-02-26T06:35:45.786Z,69.47
2019-02-26T06:38:16.538Z,68.33
2019-02-26T06:40:49.131Z,60.60
2019-02-26T06:43:19.932Z,68.57
2019-02-26T06:45:50.696Z,60.13
2019-02-26T06:48:24.621Z,64.03
2019-02-26T06:50:55.657Z,57.10
2019-02-26T06:53:26.362Z,57.50
2019-02-26T06:55:58.590Z,62.53
2019-02-26T06:58:29.746Z,66.70
2019-02-26T07:01:00.754Z,62.23
2019-02-26T07:03:31.529Z,60.37
2019-02-26T07:06:04.850Z,66.33
2019-02-26T07:08:34.758Z,64.60
2019-02-26T07:11:08.111Z,63.60
2019-02-26T07:13:41.049Z,60.27
2019-02-26T07:16:11.390Z,63.03
2019-02-26T07:18:42.610Z,55.93
2019-02-26T07:21:15.767Z,63.00
2019-02-26T07:23:46.543Z,74.70
2019-02-26T07:26:18.504Z,66.47
2019-02-26T07:28:51.076Z,65.10
2019-02-26T07:31:24.265Z,60.10
2019-02-26T07:34:02.844Z,59.53
2019-02-26T07:36:33.139Z,66.30
2019-02-26T07:39:06.745Z,63.27
2019-02-26T07:41:38.318Z,64.23
2019-02-26T07:44:15.363Z,59.77
2019-02-26T07:46:44.772Z,65.93
2019-02-26T07:49:16.662Z,60.77
2019-02-26T07:51:47.449Z,70.63
2019-02-26T07:54:18.482Z,57.53
2019-02-26T07:56:50.171Z,59.63
2019-02-26T07:59:27.601Z,56.73
2019-02-26T08:01:54.159Z,58.53
2019-02-26T08:04:24.987Z,54.33
2019-02-26T08:06:57.208Z,53.37
2019-02-26T08:09:28.305Z,47.70
2019-02-26T08:11:59.132Z,49.63
2019-02-26T08:14:29.924Z,54.17
2019-02-26T08:17:02.057Z,49.70
2019-02-26T08:19:39.280Z,48.37
2019-02-26T08:22:09.846Z,46.00
2019-02-26T08:24:40.670Z,45.47
2019-02-26T08:27:13.424Z,51.63
2019-02-26T08:29:44.035Z,44.47
2019-02-26T08:32:18.121Z,43.80
2019-02-26T08:34:47.431Z,44.27
2019-02-26T08:37:18.185Z,42.43
2019-02-26T08:39:48.975Z,39.87
2019-02-26T08:42:19.773Z,41.90
2019-02-26T08:44:51.222Z,41.90
2019-02-26T08:47:23.621Z,43.03
2019-02-26T08:49:54.494Z,40.40
2019-02-26T08:52:27.458Z,39.30
2019-02-26T08:54:57.875Z,41.87
2019-02-26T08:57:40.630Z,38.20
2019-02-26T09:00:14.261Z,39.20
2019-02-26T09:02:46.101Z,42.63
2019-02-26T09:05:17.757Z,36.70
2019-02-26T09:07:50.595Z,38.47
2019-02-26T09:10:23.270Z,39.80
2019-02-26T09:12:53.748Z,39.40
2019-02-26T09:15:24.588Z,39.40
2019-02-26T09:17:55.428Z,35.50
2019-02-26T09:20:26.280Z,38.57
2019-02-26T09:22:59.524Z,36.90
2019-02-26T09:25:33.977Z,41.00
2019-02-26T09:28:04.862Z,37.57
2019-02-26T09:30:36.480Z,39.53
2019-02-26T09:33:16.365Z,38.03
2019-02-26T09:35:49.721Z,40.03
2019-02-26T09:38:22.499Z,38.40
2019-02-26T09:40:54.157Z,35.93
2019-02-26T09:43:24.835Z,40.63
2019-02-26T09:45:55.741Z,40.10
2019-02-26T09:48:26.569Z,37.60
2019-02-26T09:50:57.367Z,40.57
2019-02-26T09:53:28.162Z,41.80
2019-02-26T09:55:58.970Z,37.83
2019-02-26T09:58:29.812Z,50.30
2019-02-26T10:01:00.626Z,43.87
2019-02-26T10:03:36.758Z,37.00
2019-02-26T10:06:05.824Z,37.53
2019-02-26T10:08:36.595Z,38.40
2019-02-26T10:11:07.467Z,34.63
2019-02-26T10:13:39.650Z,35.07
2019-02-26T10:16:13.074Z,39.17
2019-02-26T10:18:45.022Z,36.93
2019-02-26T10:21:18.292Z,39.07
2019-02-26T10:23:51.467Z,36.17
2019-02-26T10:26:21.527Z,36.30
2019-02-26T10:28:57.869Z,39.70
2019-02-26T10:31:26.747Z,35.80
2019-02-26T10:33:57.262Z,35.73
2019-02-26T10:36:32.453Z,35.03
2019-02-26T10:39:02.750Z,37.90
2019-02-26T10:41:36.847Z,35.77
2019-02-26T10:44:08.332Z,35.33
2019-02-26T10:46:41.776Z,32.97
2019-02-26T10:49:12.446Z,36.07
2019-02-26T10:51:43.462Z,36.83
2019-02-26T10:54:17.941Z,35.40
2019-02-26T10:56:48.322Z,36.73
2019-02-26T10:59:19.744Z,35.63
2019-02-26T11:01:54.739Z,34.00
2019-02-26T11:04:34.237Z,40.17
2019-02-26T11:06:59.106Z,36.57
2019-02-26T11:09:31.894Z,31.47
2019-02-26T11:12:05.146Z,36.60
2019-02-26T11:14:37.233Z,37.07
2019-02-26T11:17:08.347Z,33.33
2019-02-26T11:19:41.728Z,34.93
2019-02-26T11:22:11.513Z,30.10
2019-02-26T11:24:42.257Z,35.83
2019-02-26T11:27:13.072Z,38.77
2019-02-26T11:29:43.943Z,32.50
2019-02-26T11:32:15.532Z,34.07
2019-02-26T11:34:46.364Z,38.30
2019-02-26T11:37:17.466Z,34.97
2019-02-26T11:39:48.552Z,32.03
2019-02-26T11:42:21.193Z,32.17
2019-02-26T11:44:51.933Z,26.97
2019-02-26T11:47:23.030Z,29.93
2019-02-26T11:49:59.508Z,27.90
2019-02-26T11:52:30.925Z,31.70
2019-02-26T11:55:05.769Z,25.87
2019-02-26T11:57:37.664Z,25.53
2019-02-26T12:00:15.090Z,25.23
2019-02-26T12:02:45.558Z,27.07
2019-02-26T12:05:16.388Z,21.57
2019-02-26T12:07:48.732Z,22.50
2019-02-26T12:10:19.695Z,23.03
2019-02-26T12:12:56.828Z,20.47
2019-02-26T12:15:30.131Z,17.30
2019-02-26T12:18:00.770Z,17.03
2019-02-26T12:20:32.071Z,21.53
2019-02-26T12:23:02.882Z,21.87
2019-02-26T12:25:33.735Z,17.10
2019-02-26T12:28:05.397Z,17.30
2019-02-26T12:30:37.564Z,12.57
2019-02-26T12:33:11.943Z,9.97
2019-02-26T12:35:43.688Z,11.40
2019-02-26T12:38:20.642Z,17.93
2019-02-26T12:40:49.929Z,15.90
2019-02-26T12:43:19.703Z,16.40
2019-02-26T12:45:52.078Z,18.53
2019-02-26T12:48:24.549Z,15.73
2019-02-26T12:50:57.757Z,11.60
2019-02-26T12:53:27.966Z,13.13
2019-02-26T12:56:01.945Z,11.30
2019-02-26T12:58:31.210Z,8.57
2019-02-26T13:01:02.082Z,7.37
2019-02-26T13:03:38.099Z,8.30
2019-02-26T13:06:10.033Z,8.17
2019-02-26T13:08:39.790Z,7.60
2019-02-26T13:11:13.980Z,5.63
2019-02-26T13:13:45.227Z,5.30
2019-02-26T13:16:17.250Z,6.03
2019-02-26T13:18:51.245Z,7.83
2019-02-26T13:21:20.672Z,9.83
2019-02-26T13:23:52.554Z,12.80
2019-02-26T13:26:23.422Z,9.43
2019-02-26T13:28:56.147Z,8.60
2019-02-26T13:31:28.371Z,9.27
2019-02-26T13:33:59.172Z,11.60
2019-02-26T13:36:29.906Z,10.73
2019-02-26T13:39:00.758Z,12.63
2019-02-26T13:41:38.716Z,19.57
2019-02-26T13:44:07.572Z,15.03
2019-02-26T13:46:38.429Z,13.77
2019-02-26T13:49:09.324Z,13.77
2019-02-26T13:51:40.190Z,16.90
2019-02-26T13:54:11.430Z,12.17
2019-02-26T13:56:42.332Z,14.67
2019-02-26T13:59:14.970Z,14.60
2019-02-26T14:01:45.848Z,15.37
2019-02-26T14:04:16.764Z,17.43
2019-02-26T14:06:47.616Z,13.87
2019-02-26T14:09:18.578Z,14.97
2019-02-26T14:11:49.422Z,14.60
2019-02-26T14:14:20.242Z,20.07
2019-02-26T14:16:51.003Z,14.00
2019-02-26T14:19:21.841Z,18.57
2019-02-26T14:21:52.541Z,17.67
2019-02-26T14:24:24.451Z,20.33
2019-02-26T14:26:55.604Z,16.80
2019-02-26T14:29:26.571Z,17.83
2019-02-26T14:31:57.270Z,23.00
2019-02-26T14:34:28.134Z,21.80
2019-02-26T14:36:59.261Z,23.43
2019-02-26T14:39:30.027Z,22.47
2019-02-26T14:42:00.810Z,23.57
2019-02-26T14:44:31.686Z,23.53
2019-02-26T14:47:02.582Z,20.47
2019-02-26T14:49:33.277Z,19.37
2019-02-26T14:52:04.075Z,23.47
2019-02-26T14:54:36.170Z,21.20
2019-02-26T14:57:07.019Z,20.77
2019-02-26T14:59:39.113Z,20.67
2019-02-26T15:02:13.402Z,20.50
2019-02-26T15:04:42.433Z,19.13
2019-02-26T15:07:13.214Z,22.47
2019-02-26T15:09:44.014Z,24.57
2019-02-26T15:12:15.550Z,25.43
2019-02-26T15:14:48.739Z,25.47
2019-02-26T15:17:18.891Z,24.00
2019-02-26T15:19:53.142Z,26.53
2019-02-26T15:22:22.265Z,21.87
2019-02-26T15:24:53.097Z,29.33
2019-02-26T15:27:23.966Z,23.83
2019-02-26T15:29:54.766Z,16.87
2019-02-26T15:32:25.810Z,19.03
2019-02-26T15:34:56.572Z,18.77
2019-02-26T15:37:27.311Z,17.60
2019-02-26T15:39:58.430Z,17.07
2019-02-26T15:42:31.165Z,20.77
2019-02-26T15:45:04.782Z,21.20
2019-02-26T15:47:35.561Z,17.93
2019-02-26T15:50:08.973Z,18.20
2019-02-26T15:52:40.022Z,19.67
2019-02-26T15:55:13.547Z,19.77
2019-02-26T15:57:44.526Z,19.23
2019-02-26T16:00:18.085Z,17.57
2019-02-26T16:02:51.434Z,19.77
2019-02-26T16:05:23.290Z,20.30
2019-02-26T16:07:54.146Z,21.03
2019-02-26T16:10:26.058Z,23.57
2019-02-26T16:13:04.402Z,19.83
2019-02-26T16:15:35.749Z,19.27
2019-02-26T16:18:06.604Z,22.93
2019-02-26T16:20:59.986Z,23.27
2019-02-26T16:23:31.034Z,24.60
2019-02-26T16:26:05.638Z,19.47
2019-02-26T16:28:36.341Z,24.57
2019-02-26T16:31:07.217Z,20.30
2019-02-26T16:33:38.000Z,23.00
2019-02-26T16:36:09.056Z,31.17
2019-02-26T16:38:39.886Z,22.80
2019-02-26T16:41:11.655Z,25.43
2019-02-26T16:43:43.275Z,23.40
2019-02-26T16:46:14.317Z,21.43
2019-02-26T16:48:45.626Z,22.20
2019-02-26T16:51:20.884Z,21.47
2019-02-26T16:53:50.849Z,21.97
2019-02-26T16:56:22.373Z,27.37
2019-02-26T16:58:53.302Z,26.10
2019-02-26T17:01:24.060Z,29.43
2019-02-26T17:03:56.073Z,24.70
2019-02-26T17:06:27.022Z,24.93
2019-02-26T17:08:57.948Z,23.23
2019-02-26T17:11:32.303Z,29.53
2019-02-26T17:14:03.339Z,29.33
2019-02-26T17:16:35.287Z,28.97
2019-02-26T17:19:06.075Z,29.47
2019-02-26T17:21:36.909Z,31.37
2019-02-26T17:24:08.765Z,32.80
2019-02-26T17:26:39.614Z,31.17
2019-02-26T17:29:10.391Z,38.93
2019-02-26T17:31:41.445Z,30.50
2019-02-26T17:34:12.218Z,29.87
2019-02-26T17:36:42.998Z,30.60
2019-02-26T17:39:13.750Z,32.93
2019-02-26T17:41:44.816Z,33.53
2019-02-26T17:44:16.062Z,31.27
2019-02-26T17:46:47.625Z,31.37
2019-02-26T17:49:18.412Z,29.53
2019-02-26T17:51:49.177Z,33.77
2019-02-26T17:54:20.099Z,33.20
2019-02-26T17:56:50.931Z,33.27
2019-02-26T17:59:22.735Z,31.90
2019-02-26T18:01:53.491Z,34.37
2019-02-26T18:04:24.378Z,30.70
2019-02-26T18:06:55.421Z,38.77
2019-02-26T18:09:26.273Z,37.60
2019-02-26T18:11:57.057Z,31.27
2019-02-26T18:14:27.822Z,30.60
2019-02-26T18:16:58.620Z,29.40
2019-02-26T18:19:29.404Z,33.53
2019-02-26T18:22:01.727Z,36.03
2019-02-26T18:24:32.478Z,45.67
2019-02-26T18:27:03.672Z,32.53
2019-02-26T18:29:34.638Z,29.00
2019-02-26T18:32:05.528Z,32.10
2019-02-26T18:34:36.394Z,34.03
2019-02-26T18:37:07.251Z,40.23
2019-02-26T18:39:38.343Z,34.90
2019-02-26T18:42:10.503Z,34.83
2019-02-26T18:44:41.337Z,33.00
2019-02-26T18:47:13.066Z,35.50
2019-02-26T18:49:43.926Z,35.13
2019-02-26T18:52:14.832Z,37.37
2019-02-26T18:54:45.684Z,35.60
2019-02-26T18:57:16.583Z,35.50
2019-02-26T18:59:47.345Z,32.27
2019-02-26T19:02:18.275Z,34.77
2019-02-26T19:04:49.288Z,34.90
2019-02-26T19:07:20.177Z,35.37
2019-02-26T19:09:51.072Z,35.17
2019-02-26T19:12:21.974Z,33.63
2019-02-26T19:14:53.015Z,32.80
2019-02-26T19:17:26.581Z,38.00
2019-02-26T19:20:12.772Z,33.43
2019-02-26T19:22:44.149Z,36.13
2019-02-26T19:25:14.955Z,41.40
2019-02-26T19:27:52.818Z,35.73
2019-02-26T19:30:21.574Z,42.73
2019-02-26T19:32:52.464Z,36.90
2019-02-26T19:35:38.188Z,34.07
2019-02-26T19:38:08.642Z,36.90
2019-02-26T19:40:46.130Z,36.57
2019-02-26T19:43:17.046Z,39.47
2019-02-26T19:45:52.596Z,43.30
2019-02-26T19:48:23.858Z,39.73
2019-02-26T19:50:54.767Z,40.67
2019-02-26T19:53:25.581Z,41.80
2019-02-26T19:55:56.382Z,40.33
2019-02-26T19:58:27.190Z,41.80
2019-02-26T20:00:58.029Z,38.00
2019-02-26T20:03:39.309Z,39.63
2019-02-26T20:06:01.382Z,37.93
2019-02-26T20:08:32.150Z,43.53
2019-02-26T20:11:02.910Z,37.03
2019-02-26T20:13:34.100Z,39.00
2019-02-26T20:16:05.486Z,41.53
2019-02-26T20:18:36.350Z,40.50
2019-02-26T20:21:07.247Z,44.73
2019-02-26T20:23:41.807Z,43.40
2019-02-26T20:26:16.072Z,43.73
2019-02-26T20:28:44.746Z,43.50
2019-02-26T20:31:15.599Z,43.03
2019-02-26T20:33:46.436Z,44.63
2019-02-26T20:36:17.841Z,41.57
2019-02-26T20:38:49.260Z,48.40
2019-02-26T20:41:22.206Z,46.70
2019-02-26T20:43:52.611Z,41.27
2019-02-26T20:46:25.134Z,41.73
2019-02-26T20:48:55.891Z,42.13
2019-02-26T20:51:27.194Z,51.10
2019-02-26T20:53:58.490Z,44.97
2019-02-26T20:56:30.968Z,46.70
2019-02-26T20:59:04.408Z,43.90
2019-02-26T21:01:35.184Z,50.00
2019-02-26T21:04:07.420Z,45.50
2019-02-26T21:06:39.189Z,48.60
2019-02-26T21:09:13.185Z,50.77
2019-02-26T21:11:44.078Z,47.57
2019-02-26T21:14:15.281Z,47.17
2019-02-26T21:16:47.109Z,43.10
2019-02-26T21:19:17.911Z,43.20
2019-02-26T21:21:49.116Z,47.30
2019-02-26T21:24:20.364Z,47.93
2019-02-26T21:26:52.835Z,48.67
2019-02-26T21:29:23.708Z,47.73
2019-02-26T21:31:54.571Z,51.43
2019-02-26T21:34:25.282Z,50.57
2019-02-26T21:36:57.878Z,50.37
2019-02-26T21:39:29.700Z,55.30
2019-02-26T21:42:00.490Z,55.47
2019-02-26T21:44:31.296Z,51.73
2019-02-26T21:47:02.144Z,46.13
2019-02-26T21:49:33.945Z,48.20
2019-02-26T21:52:08.785Z,47.37
2019-02-26T21:54:37.930Z,45.67
2019-02-26T21:57:08.723Z,44.13
2019-02-26T21:59:49.676Z,60.20
2019-02-26T22:02:13.627Z,51.03
2019-02-26T22:04:44.501Z,53.20
2019-02-26T22:07:19.179Z,51.87
2019-02-26T22:09:51.828Z,56.33
2019-02-26T22:12:24.213Z,57.17
2019-02-26T22:14:55.522Z,55.27
2019-02-26T22:17:27.239Z,55.90
2019-02-26T22:19:58.378Z,50.50
2019-02-26T22:22:30.441Z,60.87
2019-02-26T22:25:09.607Z,48.93
2019-02-26T22:27:36.681Z,50.73
2019-02-26T22:30:09.389Z,54.07
2019-02-26T22:32:40.139Z,56.07
2019-02-26T22:35:11.206Z,54.83
2019-02-26T22:37:42.158Z,51.50
2019-02-26T22:40:13.077Z,59.80
2019-02-26T22:42:44.248Z,51.23
2019-02-26T22:45:16.083Z,53.73
2019-02-26T22:47:51.386Z,60.70
2019-02-26T22:50:22.172Z,59.40
2019-02-26T22:52:52.986Z,52.63
2019-02-26T22:55:23.794Z,54.77
2019-02-26T22:57:54.599Z,51.40
2019-02-26T23:00:58.336Z,60.33
2019-02-26T23:03:31.043Z,55.73
2019-02-26T23:06:02.008Z,50.03
2019-02-26T23:08:33.109Z,51.40
2019-02-26T23:11:03.924Z,55.20
2019-02-26T23:13:35.016Z,49.43
2019-02-26T23:16:06.125Z,51.80
2019-02-26T23:18:37.168Z,52.03
2019-02-26T23:21:08.174Z,50.53
2019-02-26T23:23:39.350Z,54.77
2019-02-26T23:26:10.532Z,56.47
2019-02-26T23:28:41.934Z,53.53
2019-02-26T23:31:13.164Z,55.50
2019-02-26T23:33:47.798Z,54.60
2019-02-26T23:36:16.482Z,53.80
2019-02-26T23:38:47.841Z,53.93
2019-02-26T23:41:18.583Z,55.17
2019-02-26T23:43:49.346Z,56.50
2019-02-26T23:46:20.170Z,55.83
2019-02-26T23:48:50.921Z,58.60
2019-02-26T23:51:21.695Z,53.47
2019-02-26T23:53:52.484Z,54.53
2019-02-26T23:56:23.330Z,59.00
2019-02-26T23:58:55.734Z,64.93
